createdAt,value
2018-07-15T00:00:32.880Z,20.10
2018-07-15T00:03:00.469Z,20.10
2018-07-15T00:05:28.023Z,20.10
2018-07-15T00:07:55.652Z,20.10
2018-07-15T00:10:23.236Z,20.00
2018-07-15T00:12:50.838Z,19.90
2018-07-15T00:15:18.454Z,19.90
2018-07-15T00:17:46.084Z,19.90
2018-07-15T00:20:13.740Z,19.80
2018-07-15T00:22:41.410Z,19.80
2018-07-15T00:25:08.970Z,19.70
2018-07-15T00:27:36.555Z,19.70
2018-07-15T00:30:04.421Z,19.70
2018-07-15T00:32:31.988Z,19.70
2018-07-15T00:34:59.633Z,19.70
2018-07-15T00:37:27.239Z,19.70
2018-07-15T00:39:54.839Z,19.70
2018-07-15T00:42:22.500Z,19.70
2018-07-15T00:44:50.033Z,19.60
2018-07-15T00:47:17.621Z,19.60
2018-07-15T00:49:45.251Z,19.60
2018-07-15T00:52:12.943Z,19.60
2018-07-15T00:54:40.564Z,19.70
2018-07-15T00:57:08.192Z,19.70
2018-07-15T00:59:35.814Z,19.70
2018-07-15T01:02:03.453Z,19.80
2018-07-15T01:04:31.052Z,19.70
2018-07-15T01:06:58.663Z,19.80
2018-07-15T01:09:26.222Z,19.80
2018-07-15T01:11:53.882Z,19.80
2018-07-15T01:14:21.482Z,19.70
2018-07-15T01:16:49.122Z,19.70
2018-07-15T01:19:16.767Z,19.60
2018-07-15T01:21:44.344Z,19.60
2018-07-15T01:24:11.981Z,19.60
2018-07-15T01:26:39.581Z,19.60
2018-07-15T01:29:07.151Z,19.50
2018-07-15T01:31:34.732Z,19.50
2018-07-15T01:34:02.270Z,19.50
2018-07-15T01:36:29.822Z,19.50
2018-07-15T01:38:57.394Z,19.40
2018-07-15T01:41:24.996Z,19.40
2018-07-15T01:43:52.619Z,19.30
2018-07-15T01:46:20.219Z,19.30
2018-07-15T01:48:47.818Z,19.30
2018-07-15T01:51:15.431Z,19.30
2018-07-15T01:53:42.995Z,19.20
2018-07-15T01:56:10.585Z,19.20
2018-07-15T01:58:38.136Z,19.20
2018-07-15T02:01:05.760Z,19.10
2018-07-15T02:03:33.404Z,19.10
2018-07-15T02:06:01.009Z,19.10
2018-07-15T02:08:28.581Z,19.10
2018-07-15T02:13:23.720Z,19.10
2018-07-15T02:15:51.331Z,19.20
2018-07-15T02:18:18.917Z,19.20
2018-07-15T02:20:46.523Z,19.20
2018-07-15T02:23:14.095Z,19.20
2018-07-15T02:25:41.885Z,19.20
2018-07-15T02:28:09.464Z,19.30
2018-07-15T02:30:43.951Z,19.30
2018-07-15T02:33:11.520Z,19.20
2018-07-15T02:35:39.125Z,19.20
2018-07-15T02:38:06.796Z,19.30
2018-07-15T02:40:34.431Z,19.30
2018-07-15T02:43:02.062Z,19.20
2018-07-15T02:45:29.790Z,19.30
2018-07-15T02:47:57.380Z,19.30
2018-07-15T02:50:24.961Z,19.20
2018-07-15T02:52:52.584Z,19.30
2018-07-15T02:55:20.122Z,19.20
2018-07-15T02:57:47.689Z,19.20
2018-07-15T03:00:15.302Z,19.20
2018-07-15T03:02:43.655Z,19.20
2018-07-15T03:05:11.312Z,19.20
2018-07-15T03:07:38.899Z,19.20
2018-07-15T03:10:06.535Z,19.10
2018-07-15T03:12:34.107Z,19.10
2018-07-15T03:15:01.721Z,19.00
2018-07-15T03:17:29.411Z,19.00
2018-07-15T03:19:56.950Z,18.90
2018-07-15T03:22:24.546Z,18.80
2018-07-15T03:24:52.099Z,18.90
2018-07-15T03:27:19.687Z,18.80
2018-07-15T03:29:47.278Z,18.90
2018-07-15T03:32:14.825Z,18.80
2018-07-15T03:34:42.457Z,18.80
2018-07-15T03:39:44.417Z,18.80
2018-07-15T03:42:12.545Z,18.80
2018-07-15T03:44:40.898Z,18.80
2018-07-15T03:47:08.499Z,18.80
2018-07-15T03:49:36.120Z,18.80
2018-07-15T03:52:03.886Z,18.80
2018-07-15T03:54:31.504Z,18.90
2018-07-15T03:56:59.060Z,18.80
2018-07-15T03:59:26.600Z,18.80
2018-07-15T04:01:54.164Z,18.90
2018-07-15T04:04:21.782Z,18.80
2018-07-15T04:06:49.441Z,18.80
2018-07-15T04:09:17.274Z,18.80
2018-07-15T04:11:44.849Z,18.80
2018-07-15T04:14:12.451Z,18.80
2018-07-15T04:16:40.096Z,18.80
2018-07-15T04:19:07.642Z,18.80
2018-07-15T04:21:35.238Z,18.80
2018-07-15T04:24:02.842Z,18.80
2018-07-15T04:26:30.418Z,18.80
2018-07-15T04:28:58.124Z,18.80
2018-07-15T04:31:25.727Z,18.80
2018-07-15T04:33:53.320Z,18.80
2018-07-15T04:38:48.383Z,18.90
2018-07-15T04:41:16.054Z,18.90
2018-07-15T04:43:43.667Z,19.00
2018-07-15T04:46:11.240Z,19.00
2018-07-15T04:48:38.884Z,19.00
2018-07-15T04:51:06.528Z,19.00
2018-07-15T04:53:34.100Z,19.00
2018-07-15T04:56:01.743Z,19.10
2018-07-15T04:58:29.349Z,19.10
2018-07-15T05:00:56.967Z,19.20
2018-07-15T05:03:24.600Z,19.20
2018-07-15T05:05:52.152Z,19.20
2018-07-15T05:08:19.766Z,19.30
2018-07-15T05:10:47.372Z,19.30
2018-07-15T05:13:14.938Z,19.30
2018-07-15T05:15:42.528Z,19.40
2018-07-15T05:18:10.151Z,19.40
2018-07-15T05:20:37.708Z,19.50
2018-07-15T05:23:05.319Z,19.50
2018-07-15T05:25:32.941Z,19.60
2018-07-15T05:28:00.519Z,19.70
2018-07-15T05:30:28.108Z,19.70
2018-07-15T05:32:55.801Z,19.80
2018-07-15T05:35:23.448Z,19.90
2018-07-15T05:37:51.008Z,19.90
2018-07-15T05:40:18.613Z,19.90
2018-07-15T05:42:46.224Z,20.00
2018-07-15T05:45:13.780Z,20.10
2018-07-15T05:47:48.051Z,20.10
2018-07-15T05:50:15.630Z,20.20
2018-07-15T05:52:43.213Z,20.20
2018-07-15T05:55:10.821Z,20.30
2018-07-15T05:57:38.420Z,20.40
2018-07-15T06:00:06.089Z,20.40
2018-07-15T06:02:33.773Z,20.40
2018-07-15T06:05:01.363Z,20.50
2018-07-15T06:07:28.942Z,20.50
2018-07-15T06:09:56.556Z,20.50
2018-07-15T06:12:24.138Z,20.60
2018-07-15T06:14:51.778Z,20.70
2018-07-15T06:17:19.330Z,20.80
2018-07-15T06:19:46.901Z,20.90
2018-07-15T06:22:14.628Z,20.90
2018-07-15T06:24:42.216Z,21.00
2018-07-15T06:27:09.920Z,21.10
2018-07-15T06:29:37.527Z,21.10
2018-07-15T06:32:05.253Z,21.20
2018-07-15T06:34:32.846Z,21.30
2018-07-15T06:37:00.605Z,21.40
2018-07-15T06:39:28.223Z,21.50
2018-07-15T06:41:55.821Z,21.50
2018-07-15T06:44:23.479Z,21.50
2018-07-15T06:46:51.097Z,21.60
2018-07-15T06:49:18.642Z,21.60
2018-07-15T06:51:50.060Z,21.70
2018-07-15T06:54:21.887Z,21.80
2018-07-15T06:56:49.507Z,21.90
2018-07-15T06:59:17.080Z,22.00
2018-07-15T07:01:44.722Z,22.00
2018-07-15T07:04:12.307Z,22.10
2018-07-15T07:06:39.894Z,22.10
2018-07-15T07:09:07.828Z,22.20
2018-07-15T07:11:36.419Z,22.30
2018-07-15T07:14:04.270Z,22.40
2018-07-15T07:16:31.841Z,22.40
2018-07-15T07:18:59.420Z,22.50
2018-07-15T07:21:26.984Z,22.60
2018-07-15T07:23:54.581Z,22.70
2018-07-15T07:26:22.180Z,22.80
2018-07-15T07:28:49.863Z,22.90
2018-07-15T07:31:17.442Z,22.90
2018-07-15T07:33:45.094Z,23.10
2018-07-15T07:36:12.811Z,23.20
2018-07-15T07:38:40.406Z,23.30
2018-07-15T07:41:08.076Z,23.50
2018-07-15T07:43:35.669Z,23.50
2018-07-15T07:46:03.279Z,23.50
2018-07-15T07:48:30.867Z,23.50
2018-07-15T07:53:25.936Z,23.70
2018-07-15T07:55:53.578Z,23.80
2018-07-15T07:58:21.820Z,23.90
2018-07-15T08:00:50.475Z,24.00
2018-07-15T08:03:19.823Z,24.10
2018-07-15T08:05:48.732Z,24.20
2018-07-15T08:08:16.371Z,24.30
2018-07-15T08:10:54.205Z,24.30
2018-07-15T08:13:21.879Z,24.30
2018-07-15T08:15:52.901Z,24.30
2018-07-15T08:18:20.849Z,24.40
2018-07-15T08:20:52.018Z,24.50
2018-07-15T08:23:19.707Z,24.60
2018-07-15T08:25:47.356Z,24.70
2018-07-15T08:28:15.066Z,24.70
2018-07-15T08:30:54.046Z,24.90
2018-07-15T08:33:21.760Z,25.00
2018-07-15T08:35:49.409Z,25.00
2018-07-15T08:38:17.111Z,25.10
2018-07-15T08:40:44.826Z,25.20
2018-07-15T08:43:12.418Z,25.20
2018-07-15T08:45:40.079Z,25.40
2018-07-15T08:48:07.728Z,25.40
2018-07-15T08:50:35.478Z,25.50
2018-07-15T08:53:04.015Z,25.60
2018-07-15T08:55:31.652Z,25.70
2018-07-15T08:57:59.297Z,25.80
2018-07-15T09:00:26.982Z,25.80
2018-07-15T09:02:54.622Z,25.90
2018-07-15T09:05:22.190Z,26.00
2018-07-15T09:07:49.845Z,26.00
2018-07-15T09:10:17.510Z,26.10
2018-07-15T09:12:45.680Z,26.30
2018-07-15T09:15:13.346Z,26.50
2018-07-15T09:17:40.955Z,26.60
2018-07-15T09:20:08.555Z,26.60
2018-07-15T09:22:36.263Z,26.70
2018-07-15T09:25:03.944Z,26.70
2018-07-15T09:27:31.571Z,26.70
2018-07-15T09:30:00.071Z,26.60
2018-07-15T09:32:30.200Z,26.70
2018-07-15T09:34:58.816Z,26.70
2018-07-15T09:37:27.051Z,26.90
2018-07-15T09:39:54.783Z,27.00
2018-07-15T09:42:22.632Z,27.10
2018-07-15T09:44:50.439Z,27.30
2018-07-15T09:47:18.125Z,27.30
2018-07-15T09:49:45.818Z,27.40
2018-07-15T09:54:41.002Z,27.60
2018-07-15T09:57:08.802Z,27.80
2018-07-15T09:59:36.433Z,27.90
2018-07-15T10:02:04.196Z,28.00
2018-07-15T10:04:31.832Z,28.00
2018-07-15T10:06:59.534Z,28.10
2018-07-15T10:09:27.254Z,28.30
2018-07-15T10:11:55.124Z,28.40
2018-07-15T10:14:22.814Z,28.60
2018-07-15T10:16:50.475Z,28.80
2018-07-15T10:19:18.134Z,29.10
2018-07-15T10:21:45.811Z,29.20
2018-07-15T10:24:13.434Z,29.20
2018-07-15T10:26:41.204Z,29.30
2018-07-15T10:29:08.788Z,29.40
2018-07-15T10:31:36.428Z,29.50
2018-07-15T10:34:04.078Z,29.60
2018-07-15T10:36:32.773Z,29.60
2018-07-15T10:39:00.484Z,29.60
2018-07-15T10:41:28.064Z,29.60
2018-07-15T10:43:55.679Z,29.60
2018-07-15T10:46:23.311Z,29.40
2018-07-15T10:48:50.959Z,29.40
2018-07-15T10:51:18.587Z,29.20
2018-07-15T10:53:46.256Z,28.90
2018-07-15T10:56:14.071Z,28.70
2018-07-15T10:58:41.887Z,28.60
2018-07-15T11:01:09.638Z,28.40
2018-07-15T11:03:37.214Z,28.20
2018-07-15T11:06:05.928Z,28.10
2018-07-15T11:08:33.603Z,28.00
2018-07-15T11:11:01.206Z,27.80
2018-07-15T11:13:29.006Z,27.80
2018-07-15T11:15:56.520Z,27.60
2018-07-15T11:18:24.147Z,27.30
2018-07-15T11:20:51.812Z,27.10
2018-07-15T11:23:19.448Z,27.00
2018-07-15T11:25:47.075Z,26.70
2018-07-15T11:28:14.795Z,26.60
2018-07-15T11:30:42.587Z,26.50
2018-07-15T11:33:10.247Z,26.30
2018-07-15T11:35:37.919Z,26.30
2018-07-15T11:38:05.585Z,26.10
2018-07-15T11:40:33.195Z,26.10
2018-07-15T11:43:01.153Z,26.10
2018-07-15T11:45:28.870Z,26.10
2018-07-15T11:47:56.520Z,26.00
2018-07-15T11:50:24.231Z,26.00
2018-07-15T11:52:51.988Z,25.90
2018-07-15T11:55:19.638Z,25.80
2018-07-15T11:57:47.317Z,25.70
2018-07-15T12:00:14.991Z,25.60
2018-07-15T12:02:42.687Z,25.50
2018-07-15T12:05:10.464Z,25.40
2018-07-15T12:07:38.097Z,25.40
2018-07-15T12:10:07.094Z,25.40
2018-07-15T12:12:35.211Z,25.30
2018-07-15T12:15:02.927Z,25.20
2018-07-15T12:17:31.258Z,25.20
2018-07-15T12:19:59.063Z,25.10
2018-07-15T12:22:26.720Z,25.10
2018-07-15T12:24:55.446Z,25.00
2018-07-15T12:27:23.451Z,25.00
2018-07-15T12:29:51.110Z,24.90
2018-07-15T12:32:19.580Z,24.80
2018-07-15T12:34:47.669Z,24.70
2018-07-15T12:37:15.336Z,24.50
2018-07-15T12:39:42.975Z,24.30
2018-07-15T12:42:10.641Z,24.20
2018-07-15T12:44:38.250Z,24.10
2018-07-15T12:47:05.893Z,24.00
2018-07-15T12:49:33.560Z,23.90
2018-07-15T12:52:01.180Z,23.80
2018-07-15T12:54:28.914Z,23.60
2018-07-15T12:56:56.544Z,23.50
2018-07-15T12:59:24.185Z,23.50
2018-07-15T13:01:51.802Z,23.50
2018-07-15T13:04:19.549Z,23.50
2018-07-15T13:06:47.199Z,23.50
2018-07-15T13:09:14.860Z,23.50
2018-07-15T13:11:42.528Z,23.60
2018-07-15T13:14:10.205Z,23.70
2018-07-15T13:16:37.851Z,23.70
2018-07-15T13:19:05.547Z,23.70
2018-07-15T13:21:33.208Z,23.90
2018-07-15T13:24:00.871Z,24.00
2018-07-15T13:26:28.567Z,24.00
2018-07-15T13:28:56.308Z,24.00
2018-07-15T13:31:23.973Z,24.00
2018-07-15T13:33:51.606Z,24.00
2018-07-15T13:36:19.258Z,24.00
2018-07-15T13:38:46.922Z,24.10
2018-07-15T13:41:14.632Z,24.10
2018-07-15T13:43:42.293Z,24.10
2018-07-15T13:46:09.885Z,24.10
2018-07-15T13:48:37.561Z,24.20
2018-07-15T13:51:05.374Z,24.10
2018-07-15T13:53:32.956Z,24.10
2018-07-15T13:56:00.672Z,24.00
2018-07-15T13:58:28.320Z,24.00
2018-07-15T14:00:55.971Z,24.10
2018-07-15T14:03:23.615Z,24.10
2018-07-15T14:05:51.230Z,24.10
2018-07-15T14:08:18.872Z,24.20
2018-07-15T14:10:46.620Z,24.30
2018-07-15T14:13:14.272Z,24.40
2018-07-15T14:15:41.911Z,24.60
2018-07-15T14:18:09.601Z,24.90
2018-07-15T14:20:37.274Z,25.20
2018-07-15T14:23:05.667Z,25.30
2018-07-15T14:25:33.356Z,25.40
2018-07-15T14:28:00.980Z,25.40
2018-07-15T14:30:28.754Z,25.40
2018-07-15T14:32:56.566Z,25.50
2018-07-15T14:35:24.819Z,25.60
2018-07-15T14:40:20.048Z,25.80
2018-07-15T14:42:47.797Z,25.80
2018-07-15T14:45:15.443Z,25.80
2018-07-15T14:47:43.087Z,25.70
2018-07-15T14:50:11.042Z,25.70
2018-07-15T14:52:39.339Z,25.60
2018-07-15T14:55:09.829Z,25.60
2018-07-15T14:57:37.739Z,25.50
2018-07-15T15:00:06.020Z,25.40
2018-07-15T15:02:33.710Z,25.50
2018-07-15T15:05:01.341Z,25.50
2018-07-15T15:07:29.276Z,25.50
2018-07-15T15:09:57.529Z,25.60
2018-07-15T15:12:25.772Z,25.70
2018-07-15T15:14:53.465Z,25.90
2018-07-15T15:17:22.091Z,25.90
2018-07-15T15:19:49.704Z,25.90
2018-07-15T15:22:17.504Z,25.90
2018-07-15T15:24:45.224Z,25.80
2018-07-15T15:27:12.787Z,25.70
2018-07-15T15:29:40.668Z,25.40
2018-07-15T15:32:08.762Z,25.30
2018-07-15T15:34:36.420Z,25.10
2018-07-15T15:37:04.056Z,25.00
2018-07-15T15:39:31.663Z,24.80
2018-07-15T15:41:59.310Z,24.60
2018-07-15T15:44:26.918Z,24.60
2018-07-15T15:46:54.583Z,24.60
2018-07-15T15:49:22.250Z,24.50
2018-07-15T15:51:49.871Z,24.40
2018-07-15T15:54:17.550Z,24.50
2018-07-15T15:56:45.190Z,24.50
2018-07-15T15:59:12.766Z,24.50
2018-07-15T16:01:40.396Z,24.50
2018-07-15T16:04:08.043Z,24.40
2018-07-15T16:06:35.706Z,24.40
2018-07-15T16:09:04.668Z,24.20
2018-07-15T16:11:32.769Z,24.20
2018-07-15T16:14:00.456Z,24.20
2018-07-15T16:16:28.114Z,24.40
2018-07-15T16:18:55.761Z,24.80
2018-07-15T16:21:23.525Z,25.40
2018-07-15T16:23:51.171Z,26.00
2018-07-15T16:26:18.875Z,26.40
2018-07-15T16:28:46.739Z,26.60
2018-07-15T16:31:14.433Z,26.60
2018-07-15T16:33:42.147Z,26.70
2018-07-15T16:36:09.780Z,26.80
2018-07-15T16:38:37.399Z,26.90
2018-07-15T16:41:05.219Z,27.00
2018-07-15T16:43:32.860Z,27.00
2018-07-15T16:46:00.512Z,27.00
2018-07-15T16:48:28.138Z,27.10
2018-07-15T16:53:52.369Z,27.10
2018-07-15T16:56:20.139Z,27.00
2018-07-15T16:58:47.756Z,26.90
2018-07-15T17:01:15.351Z,26.80
2018-07-15T17:03:43.001Z,26.60
2018-07-15T17:06:10.641Z,26.30
2018-07-15T17:08:38.335Z,26.10
2018-07-15T17:11:06.474Z,25.90
2018-07-15T17:13:34.222Z,25.70
2018-07-15T17:16:01.960Z,25.60
2018-07-15T17:18:29.631Z,25.50
2018-07-15T17:20:57.316Z,25.40
2018-07-15T17:23:25.055Z,25.40
2018-07-15T17:25:52.860Z,25.40
2018-07-15T17:28:20.550Z,25.50
2018-07-15T17:30:48.175Z,25.50
2018-07-15T17:33:16.032Z,25.50
2018-07-15T17:35:43.627Z,25.40
2018-07-15T17:38:11.321Z,25.40
2018-07-15T17:43:06.548Z,25.30
2018-07-15T17:45:34.221Z,25.30
2018-07-15T17:48:01.909Z,25.20
2018-07-15T17:50:29.534Z,25.10
2018-07-15T17:52:57.240Z,25.10
2018-07-15T17:55:24.948Z,25.00
2018-07-15T17:57:52.568Z,25.00
2018-07-15T18:00:20.228Z,24.90
2018-07-15T18:02:47.897Z,24.80
2018-07-15T18:05:15.571Z,24.70
2018-07-15T18:07:43.233Z,24.70
2018-07-15T18:10:10.936Z,24.60
2018-07-15T18:12:38.624Z,24.60
2018-07-15T18:15:06.325Z,24.50
2018-07-15T18:17:34.011Z,24.40
2018-07-15T18:20:01.701Z,24.40
2018-07-15T18:22:30.005Z,24.30
2018-07-15T18:24:58.554Z,24.30
2018-07-15T18:27:26.278Z,24.30
2018-07-15T18:29:53.900Z,24.30
2018-07-15T18:32:21.618Z,24.20
2018-07-15T18:34:49.271Z,24.20
2018-07-15T18:37:16.946Z,24.10
2018-07-15T18:39:44.712Z,24.10
2018-07-15T18:42:12.481Z,24.00
2018-07-15T18:44:40.207Z,23.90
2018-07-15T18:47:08.211Z,23.80
2018-07-15T18:49:35.880Z,23.70
2018-07-15T18:52:03.563Z,23.70
2018-07-15T18:54:31.303Z,23.60
2018-07-15T18:56:58.990Z,23.40
2018-07-15T18:59:26.863Z,23.40
2018-07-15T19:01:54.609Z,23.30
2018-07-15T19:04:22.386Z,23.20
2018-07-15T19:06:50.280Z,23.10
2018-07-15T19:09:18.066Z,23.10
2018-07-15T19:14:13.425Z,22.90
2018-07-15T19:16:41.782Z,22.90
2018-07-15T19:19:10.254Z,22.90
2018-07-15T19:21:38.344Z,22.80
2018-07-15T19:24:06.191Z,22.70
2018-07-15T19:26:33.916Z,22.70
2018-07-15T19:29:01.645Z,22.60
2018-07-15T19:31:29.388Z,22.60
2018-07-15T19:33:57.079Z,22.50
2018-07-15T19:36:24.780Z,22.40
2018-07-15T19:38:52.504Z,22.40
2018-07-15T19:41:20.169Z,22.30
2018-07-15T19:43:47.945Z,22.30
2018-07-15T19:46:15.583Z,22.20
2018-07-15T19:48:43.241Z,22.10
2018-07-15T19:51:11.002Z,22.10
2018-07-15T19:53:38.589Z,22.00
2018-07-15T19:56:06.291Z,22.00
2018-07-15T19:58:34.017Z,21.90
2018-07-15T20:01:01.786Z,21.90
2018-07-15T20:03:29.454Z,21.80
2018-07-15T20:05:57.241Z,21.80
2018-07-15T20:08:24.942Z,21.70
2018-07-15T20:10:52.626Z,21.70
2018-07-15T20:13:20.302Z,21.70
2018-07-15T20:15:48.026Z,21.70
2018-07-15T20:18:15.814Z,21.60
2018-07-15T20:20:43.532Z,21.60
2018-07-15T20:23:11.271Z,21.60
2018-07-15T20:25:39.833Z,21.60
2018-07-15T20:28:07.538Z,21.50
2018-07-15T20:30:35.186Z,21.60
2018-07-15T20:33:02.847Z,21.50
2018-07-15T20:35:30.516Z,21.50
2018-07-15T20:37:58.209Z,21.50
2018-07-15T20:40:25.788Z,21.50
2018-07-15T20:42:53.712Z,21.40
2018-07-15T20:47:48.886Z,21.30
2018-07-15T20:50:16.608Z,21.30
2018-07-15T20:52:44.286Z,21.20
2018-07-15T20:55:11.918Z,21.10
2018-07-15T20:57:39.590Z,21.10
2018-07-15T21:00:07.336Z,21.10
2018-07-15T21:05:02.590Z,21.00
2018-07-15T21:07:30.277Z,21.00
2018-07-15T21:09:57.926Z,20.90
2018-07-15T21:12:25.526Z,20.90
2018-07-15T21:14:53.172Z,20.90
2018-07-15T21:17:20.798Z,20.90
2018-07-15T21:19:48.450Z,20.90
2018-07-15T21:22:16.076Z,20.80
2018-07-15T21:24:43.800Z,20.80
2018-07-15T21:27:11.454Z,20.80
2018-07-15T21:29:39.031Z,20.70
2018-07-15T21:32:06.752Z,20.70
2018-07-15T21:34:34.389Z,20.70
2018-07-15T21:37:02.035Z,20.70
2018-07-15T21:39:29.728Z,20.70
2018-07-15T21:41:57.362Z,20.60
2018-07-15T21:44:24.992Z,20.60
2018-07-15T21:46:52.652Z,20.60
2018-07-15T21:49:20.345Z,20.50
2018-07-15T21:51:47.942Z,20.50
2018-07-15T21:54:15.601Z,20.50
2018-07-15T21:56:43.230Z,20.40
2018-07-15T21:59:10.895Z,20.40
2018-07-15T22:01:40.310Z,20.40
2018-07-15T22:04:08.677Z,20.40
2018-07-15T22:06:47.706Z,20.40
2018-07-15T22:09:27.222Z,20.40
2018-07-15T22:11:55.034Z,20.40
2018-07-15T22:14:22.655Z,20.40
2018-07-15T22:16:50.238Z,20.40
2018-07-15T22:19:17.861Z,20.40
2018-07-15T22:21:45.445Z,20.40
2018-07-15T22:24:13.244Z,20.40
2018-07-15T22:29:08.548Z,20.40
2018-07-15T22:31:36.391Z,20.40
2018-07-15T22:34:04.078Z,20.30
2018-07-15T22:36:31.668Z,20.30
2018-07-15T22:38:59.259Z,20.30
2018-07-15T22:41:26.969Z,20.20
2018-07-15T22:43:54.552Z,20.20
2018-07-15T22:46:22.195Z,20.20
2018-07-15T22:48:49.822Z,20.20
2018-07-15T22:51:17.429Z,20.20
2018-07-15T22:53:45.033Z,20.30
2018-07-15T22:56:12.644Z,20.30
2018-07-15T23:01:07.879Z,20.30
2018-07-15T23:03:35.514Z,20.30
2018-07-15T23:06:16.605Z,20.30
2018-07-15T23:11:11.831Z,20.20
2018-07-15T23:13:39.422Z,20.20
2018-07-15T23:16:07.051Z,20.20
2018-07-15T23:18:34.745Z,20.20
2018-07-15T23:21:02.369Z,20.20
2018-07-15T23:23:30.937Z,20.20
2018-07-15T23:25:58.583Z,20.10
2018-07-15T23:28:26.170Z,20.10
2018-07-15T23:30:53.737Z,20.10
2018-07-15T23:33:21.343Z,20.10
2018-07-15T23:35:48.935Z,20.10
2018-07-15T23:38:16.541Z,20.10
2018-07-15T23:40:44.133Z,20.00
2018-07-15T23:43:11.737Z,20.00
2018-07-15T23:45:39.334Z,20.00
2018-07-15T23:48:06.948Z,20.00
2018-07-15T23:50:34.570Z,20.00
2018-07-15T23:53:02.123Z,20.00
2018-07-15T23:55:29.746Z,20.00
2018-07-15T23:57:57.382Z,20.00
